sensor_id;sensor_type;location;lat;lon;timestamp;P1;durP1;ratioP1;P2;durP2;ratioP2
71395;SDS011;59888;55.814;37.132;2024-03-07T00:02:38;32.78;;;9.48;;
71395;SDS011;59888;55.814;37.132;2024-03-07T00:05:03;26.38;;;8.48;;
71395;SDS011;59888;55.814;37.132;2024-03-07T00:07:29;31.80;;;7.50;;
71395;SDS011;59888;55.814;37.132;2024-03-07T00:09:56;25.27;;;7.50;;
71395;SDS011;59888;55.814;37.132;2024-03-07T00:12:26;23.23;;;8.05;;
71395;SDS011;59888;55.814;37.132;2024-03-07T00:14:52;19.50;;;7.90;;
71395;SDS011;59888;55.814;37.132;2024-03-07T00:17:18;20.42;;;7.35;;
71395;SDS011;59888;55.814;37.132;2024-03-07T00:19:45;18.67;;;7.97;;
71395;SDS011;59888;55.814;37.132;2024-03-07T00:22:10;22.55;;;7.90;;
71395;SDS011;59888;55.814;37.132;2024-03-07T00:24:37;25.70;;;7.97;;
71395;SDS011;59888;55.814;37.132;2024-03-07T00:27:04;21.63;;;7.20;;
71395;SDS011;59888;55.814;37.132;2024-03-07T00:29:35;21.38;;;7.68;;
71395;SDS011;59888;55.814;37.132;2024-03-07T00:32:04;17.67;;;7.28;;
71395;SDS011;59888;55.814;37.132;2024-03-07T00:34:30;18.17;;;7.07;;
71395;SDS011;59888;55.814;37.132;2024-03-07T00:36:56;21.42;;;8.40;;
71395;SDS011;59888;55.814;37.132;2024-03-07T00:39:23;23.55;;;7.55;;
71395;SDS011;59888;55.814;37.132;2024-03-07T00:41:49;21.05;;;7.22;;
71395;SDS011;59888;55.814;37.132;2024-03-07T00:44:18;21.60;;;6.72;;
71395;SDS011;59888;55.814;37.132;2024-03-07T00:46:47;19.00;;;7.22;;
71395;SDS011;59888;55.814;37.132;2024-03-07T00:49:14;19.50;;;7.28;;
71395;SDS011;59888;55.814;37.132;2024-03-07T00:51:39;15.82;;;7.75;;
71395;SDS011;59888;55.814;37.132;2024-03-07T00:54:05;20.10;;;7.47;;
71395;SDS011;59888;55.814;37.132;2024-03-07T00:56:32;17.85;;;7.68;;
71395;SDS011;59888;55.814;37.132;2024-03-07T00:58:59;18.88;;;7.25;;
71395;SDS011;59888;55.814;37.132;2024-03-07T01:01:25;19.42;;;7.22;;
71395;SDS011;59888;55.814;37.132;2024-03-07T01:03:52;21.80;;;7.82;;
71395;SDS011;59888;55.814;37.132;2024-03-07T01:06:17;22.08;;;8.20;;
71395;SDS011;59888;55.814;37.132;2024-03-07T01:08:43;21.10;;;7.32;;
71395;SDS011;59888;55.814;37.132;2024-03-07T01:11:12;20.52;;;7.60;;
71395;SDS011;59888;55.814;37.132;2024-03-07T01:13:41;20.23;;;7.65;;
71395;SDS011;59888;55.814;37.132;2024-03-07T01:16:09;19.45;;;7.15;;
71395;SDS011;59888;55.814;37.132;2024-03-07T01:18:37;17.83;;;6.82;;
71395;SDS011;59888;55.814;37.132;2024-03-07T01:21:03;19.40;;;7.10;;
71395;SDS011;59888;55.814;37.132;2024-03-07T01:23:31;19.27;;;6.50;;
71395;SDS011;59888;55.814;37.132;2024-03-07T01:25:57;19.45;;;6.55;;
71395;SDS011;59888;55.814;37.132;2024-03-07T01:28:25;13.85;;;5.22;;
71395;SDS011;59888;55.814;37.132;2024-03-07T01:30:51;16.85;;;5.57;;
71395;SDS011;59888;55.814;37.132;2024-03-07T01:33:21;18.30;;;6.30;;
71395;SDS011;59888;55.814;37.132;2024-03-07T01:35:47;13.45;;;5.72;;
71395;SDS011;59888;55.814;37.132;2024-03-07T01:38:14;17.23;;;5.88;;
71395;SDS011;59888;55.814;37.132;2024-03-07T01:40:41;13.68;;;5.95;;
71395;SDS011;59888;55.814;37.132;2024-03-07T01:43:07;12.40;;;4.95;;
71395;SDS011;59888;55.814;37.132;2024-03-07T01:45:34;16.70;;;5.97;;
71395;SDS011;59888;55.814;37.132;2024-03-07T01:48:07;20.58;;;5.72;;
71395;SDS011;59888;55.814;37.132;2024-03-07T01:50:35;23.85;;;6.30;;
71395;SDS011;59888;55.814;37.132;2024-03-07T01:53:03;13.52;;;5.00;;
71395;SDS011;59888;55.814;37.132;2024-03-07T01:55:29;17.65;;;5.45;;
71395;SDS011;59888;55.814;37.132;2024-03-07T01:57:56;14.18;;;5.38;;
71395;SDS011;59888;55.814;37.132;2024-03-07T02:00:26;15.60;;;5.28;;
71395;SDS011;59888;55.814;37.132;2024-03-07T02:02:53;16.88;;;5.25;;
71395;SDS011;59888;55.814;37.132;2024-03-07T02:05:20;16.55;;;5.53;;
71395;SDS011;59888;55.814;37.132;2024-03-07T02:07:47;15.13;;;5.53;;
71395;SDS011;59888;55.814;37.132;2024-03-07T02:10:18;15.38;;;5.75;;
71395;SDS011;59888;55.814;37.132;2024-03-07T02:12:44;14.05;;;4.88;;
71395;SDS011;59888;55.814;37.132;2024-03-07T02:15:15;16.15;;;5.68;;
71395;SDS011;59888;55.814;37.132;2024-03-07T02:17:42;13.40;;;5.30;;
71395;SDS011;59888;55.814;37.132;2024-03-07T02:20:09;13.50;;;5.30;;
71395;SDS011;59888;55.814;37.132;2024-03-07T02:22:37;11.75;;;5.55;;
71395;SDS011;59888;55.814;37.132;2024-03-07T02:25:03;13.30;;;4.82;;
71395;SDS011;59888;55.814;37.132;2024-03-07T02:27:30;12.45;;;5.13;;
71395;SDS011;59888;55.814;37.132;2024-03-07T02:29:55;12.35;;;4.68;;
71395;SDS011;59888;55.814;37.132;2024-03-07T02:32:23;12.68;;;5.05;;
71395;SDS011;59888;55.814;37.132;2024-03-07T02:34:49;17.60;;;5.13;;
71395;SDS011;59888;55.814;37.132;2024-03-07T02:37:18;11.15;;;4.88;;
71395;SDS011;59888;55.814;37.132;2024-03-07T02:39:44;10.23;;;4.57;;
71395;SDS011;59888;55.814;37.132;2024-03-07T02:42:12;14.05;;;4.63;;
71395;SDS011;59888;55.814;37.132;2024-03-07T02:44:38;10.02;;;4.70;;
71395;SDS011;59888;55.814;37.132;2024-03-07T02:47:04;10.95;;;4.65;;
71395;SDS011;59888;55.814;37.132;2024-03-07T02:49:37;14.18;;;5.03;;
71395;SDS011;59888;55.814;37.132;2024-03-07T02:52:03;12.68;;;5.20;;
71395;SDS011;59888;55.814;37.132;2024-03-07T02:54:32;15.07;;;5.38;;
71395;SDS011;59888;55.814;37.132;2024-03-07T02:56:59;11.63;;;5.18;;
71395;SDS011;59888;55.814;37.132;2024-03-07T02:59:24;10.25;;;4.82;;
71395;SDS011;59888;55.814;37.132;2024-03-07T03:01:50;14.35;;;5.53;;
71395;SDS011;59888;55.814;37.132;2024-03-07T03:04:16;18.23;;;5.88;;
71395;SDS011;59888;55.814;37.132;2024-03-07T03:06:43;17.63;;;5.13;;
71395;SDS011;59888;55.814;37.132;2024-03-07T03:09:09;11.52;;;4.93;;
71395;SDS011;59888;55.814;37.132;2024-03-07T03:11:41;12.95;;;5.38;;
71395;SDS011;59888;55.814;37.132;2024-03-07T03:14:09;17.35;;;5.50;;
71395;SDS011;59888;55.814;37.132;2024-03-07T03:16:42;15.65;;;5.38;;
71395;SDS011;59888;55.814;37.132;2024-03-07T03:19:10;13.57;;;5.88;;
71395;SDS011;59888;55.814;37.132;2024-03-07T03:21:36;14.48;;;5.30;;
71395;SDS011;59888;55.814;37.132;2024-03-07T03:24:06;17.08;;;5.50;;
71395;SDS011;59888;55.814;37.132;2024-03-07T03:26:39;15.00;;;7.30;;
71395;SDS011;59888;55.814;37.132;2024-03-07T03:29:07;12.50;;;5.32;;
71395;SDS011;59888;55.814;37.132;2024-03-07T03:31:37;19.30;;;6.10;;
71395;SDS011;59888;55.814;37.132;2024-03-07T03:34:02;17.67;;;5.68;;
71395;SDS011;59888;55.814;37.132;2024-03-07T03:36:30;15.75;;;6.45;;
71395;SDS011;59888;55.814;37.132;2024-03-07T03:38:57;13.02;;;5.03;;
71395;SDS011;59888;55.814;37.132;2024-03-07T03:41:25;18.73;;;5.10;;
71395;SDS011;59888;55.814;37.132;2024-03-07T03:43:50;14.65;;;5.43;;
71395;SDS011;59888;55.814;37.132;2024-03-07T03:46:19;17.27;;;5.82;;
71395;SDS011;59888;55.814;37.132;2024-03-07T03:48:52;17.70;;;5.35;;
71395;SDS011;59888;55.814;37.132;2024-03-07T03:51:18;15.00;;;6.15;;
71395;SDS011;59888;55.814;37.132;2024-03-07T03:53:51;18.10;;;5.75;;
71395;SDS011;59888;55.814;37.132;2024-03-07T03:56:21;14.75;;;5.20;;
71395;SDS011;59888;55.814;37.132;2024-03-07T03:58:47;13.73;;;5.32;;
71395;SDS011;59888;55.814;37.132;2024-03-07T04:01:13;14.38;;;5.20;;
71395;SDS011;59888;55.814;37.132;2024-03-07T04:03:42;17.27;;;5.50;;
71395;SDS011;59888;55.814;37.132;2024-03-07T04:06:19;12.65;;;5.20;;
71395;SDS011;59888;55.814;37.132;2024-03-07T04:08:45;12.95;;;5.30;;
71395;SDS011;59888;55.814;37.132;2024-03-07T04:11:11;13.75;;;5.05;;
71395;SDS011;59888;55.814;37.132;2024-03-07T04:13:39;18.63;;;5.85;;
71395;SDS011;59888;55.814;37.132;2024-03-07T04:16:05;14.88;;;5.50;;
71395;SDS011;59888;55.814;37.132;2024-03-07T04:18:34;12.75;;;4.80;;
71395;SDS011;59888;55.814;37.132;2024-03-07T04:20:59;14.93;;;5.40;;
71395;SDS011;59888;55.814;37.132;2024-03-07T04:23:26;13.00;;;4.80;;
71395;SDS011;59888;55.814;37.132;2024-03-07T04:25:53;21.30;;;5.88;;
71395;SDS011;59888;55.814;37.132;2024-03-07T04:28:19;15.57;;;5.53;;
71395;SDS011;59888;55.814;37.132;2024-03-07T04:30:46;12.73;;;5.25;;
71395;SDS011;59888;55.814;37.132;2024-03-07T04:33:14;14.60;;;5.18;;
71395;SDS011;59888;55.814;37.132;2024-03-07T04:35:43;13.07;;;5.25;;
71395;SDS011;59888;55.814;37.132;2024-03-07T04:38:09;12.90;;;5.13;;
71395;SDS011;59888;55.814;37.132;2024-03-07T04:40:37;13.93;;;4.95;;
71395;SDS011;59888;55.814;37.132;2024-03-07T04:43:04;14.98;;;5.07;;
71395;SDS011;59888;55.814;37.132;2024-03-07T04:45:29;13.07;;;5.35;;
71395;SDS011;59888;55.814;37.132;2024-03-07T04:47:56;14.15;;;5.40;;
71395;SDS011;59888;55.814;37.132;2024-03-07T04:50:24;13.98;;;5.00;;
71395;SDS011;59888;55.814;37.132;2024-03-07T04:52:55;12.07;;;4.88;;
71395;SDS011;59888;55.814;37.132;2024-03-07T04:55:21;14.57;;;4.47;;
71395;SDS011;59888;55.814;37.132;2024-03-07T04:57:46;13.00;;;4.65;;
71395;SDS011;59888;55.814;37.132;2024-03-07T05:00:15;14.65;;;5.38;;
71395;SDS011;59888;55.814;37.132;2024-03-07T05:02:47;14.18;;;5.20;;
71395;SDS011;59888;55.814;37.132;2024-03-07T05:05:14;18.17;;;5.35;;
71395;SDS011;59888;55.814;37.132;2024-03-07T05:07:40;12.40;;;5.05;;
71395;SDS011;59888;55.814;37.132;2024-03-07T05:10:08;13.43;;;4.75;;
71395;SDS011;59888;55.814;37.132;2024-03-07T05:12:37;11.38;;;4.50;;
71395;SDS011;59888;55.814;37.132;2024-03-07T05:15:04;12.95;;;5.20;;
71395;SDS011;59888;55.814;37.132;2024-03-07T05:17:30;15.52;;;5.13;;
71395;SDS011;59888;55.814;37.132;2024-03-07T05:20:03;20.58;;;5.35;;
71395;SDS011;59888;55.814;37.132;2024-03-07T05:22:32;11.45;;;4.63;;
71395;SDS011;59888;55.814;37.132;2024-03-07T05:24:58;9.88;;;4.07;;
71395;SDS011;59888;55.814;37.132;2024-03-07T05:27:24;17.88;;;5.22;;
71395;SDS011;59888;55.814;37.132;2024-03-07T05:29:53;13.10;;;5.13;;
71395;SDS011;59888;55.814;37.132;2024-03-07T05:32:22;10.30;;;5.22;;
71395;SDS011;59888;55.814;37.132;2024-03-07T05:34:49;13.38;;;4.82;;
71395;SDS011;59888;55.814;37.132;2024-03-07T05:37:19;17.60;;;5.32;;
71395;SDS011;59888;55.814;37.132;2024-03-07T05:39:49;14.65;;;5.03;;
71395;SDS011;59888;55.814;37.132;2024-03-07T05:42:16;16.00;;;4.93;;
71395;SDS011;59888;55.814;37.132;2024-03-07T05:44:44;22.45;;;5.53;;
71395;SDS011;59888;55.814;37.132;2024-03-07T05:47:12;13.65;;;4.53;;
71395;SDS011;59888;55.814;37.132;2024-03-07T05:49:45;13.00;;;4.57;;
71395;SDS011;59888;55.814;37.132;2024-03-07T05:52:11;14.02;;;4.70;;
71395;SDS011;59888;55.814;37.132;2024-03-07T05:54:37;14.23;;;5.20;;
71395;SDS011;59888;55.814;37.132;2024-03-07T05:57:03;14.27;;;5.07;;
71395;SDS011;59888;55.814;37.132;2024-03-07T05:59:32;19.00;;;4.95;;
71395;SDS011;59888;55.814;37.132;2024-03-07T06:01:58;17.20;;;5.05;;
71395;SDS011;59888;55.814;37.132;2024-03-07T06:04:32;13.90;;;5.15;;
71395;SDS011;59888;55.814;37.132;2024-03-07T06:06:59;11.70;;;4.70;;
71395;SDS011;59888;55.814;37.132;2024-03-07T06:09:25;13.02;;;4.45;;
71395;SDS011;59888;55.814;37.132;2024-03-07T06:11:52;11.20;;;4.47;;
71395;SDS011;59888;55.814;37.132;2024-03-07T06:14:18;10.52;;;4.78;;
71395;SDS011;59888;55.814;37.132;2024-03-07T06:16:47;14.27;;;4.80;;
71395;SDS011;59888;55.814;37.132;2024-03-07T06:19:13;9.10;;;4.03;;
71395;SDS011;59888;55.814;37.132;2024-03-07T06:21:39;13.50;;;4.43;;
71395;SDS011;59888;55.814;37.132;2024-03-07T06:24:06;11.77;;;4.20;;
71395;SDS011;59888;55.814;37.132;2024-03-07T06:26:35;9.93;;;4.15;;
71395;SDS011;59888;55.814;37.132;2024-03-07T06:29:23;9.73;;;4.13;;
71395;SDS011;59888;55.814;37.132;2024-03-07T06:32:07;8.48;;;3.50;;
71395;SDS011;59888;55.814;37.132;2024-03-07T06:34:34;9.82;;;4.35;;
71395;SDS011;59888;55.814;37.132;2024-03-07T06:37:01;10.48;;;4.43;;
71395;SDS011;59888;55.814;37.132;2024-03-07T06:39:28;11.35;;;4.25;;
71395;SDS011;59888;55.814;37.132;2024-03-07T06:41:57;12.77;;;4.35;;
71395;SDS011;59888;55.814;37.132;2024-03-07T06:44:23;16.08;;;4.30;;
71395;SDS011;59888;55.814;37.132;2024-03-07T06:46:50;16.50;;;4.80;;
71395;SDS011;59888;55.814;37.132;2024-03-07T06:49:16;17.45;;;4.88;;
71395;SDS011;59888;55.814;37.132;2024-03-07T06:51:42;11.55;;;4.20;;
71395;SDS011;59888;55.814;37.132;2024-03-07T06:54:08;13.73;;;4.35;;
71395;SDS011;59888;55.814;37.132;2024-03-07T06:56:37;10.32;;;4.43;;
71395;SDS011;59888;55.814;37.132;2024-03-07T06:59:02;12.15;;;4.35;;
71395;SDS011;59888;55.814;37.132;2024-03-07T07:01:30;11.38;;;4.32;;
71395;SDS011;59888;55.814;37.132;2024-03-07T07:03:56;9.82;;;4.03;;
71395;SDS011;59888;55.814;37.132;2024-03-07T07:06:26;9.25;;;4.05;;
71395;SDS011;59888;55.814;37.132;2024-03-07T07:08:52;12.05;;;4.35;;
71395;SDS011;59888;55.814;37.132;2024-03-07T07:11:18;17.05;;;4.68;;
71395;SDS011;59888;55.814;37.132;2024-03-07T07:13:46;13.73;;;4.93;;
71395;SDS011;59888;55.814;37.132;2024-03-07T07:16:12;13.40;;;4.43;;
71395;SDS011;59888;55.814;37.132;2024-03-07T07:18:39;13.85;;;4.32;;
71395;SDS011;59888;55.814;37.132;2024-03-07T07:21:10;13.10;;;4.60;;
71395;SDS011;59888;55.814;37.132;2024-03-07T07:23:41;13.57;;;3.95;;
71395;SDS011;59888;55.814;37.132;2024-03-07T07:26:09;14.07;;;4.03;;
71395;SDS011;59888;55.814;37.132;2024-03-07T07:28:38;11.00;;;4.38;;
71395;SDS011;59888;55.814;37.132;2024-03-07T07:31:04;11.15;;;3.97;;
71395;SDS011;59888;55.814;37.132;2024-03-07T07:33:31;9.52;;;3.05;;
71395;SDS011;59888;55.814;37.132;2024-03-07T07:35:59;8.25;;;3.28;;
71395;SDS011;59888;55.814;37.132;2024-03-07T07:38:26;7.65;;;2.95;;
71395;SDS011;59888;55.814;37.132;2024-03-07T07:40:53;8.50;;;3.25;;
71395;SDS011;59888;55.814;37.132;2024-03-07T07:43:21;10.57;;;4.03;;
71395;SDS011;59888;55.814;37.132;2024-03-07T07:45:50;11.73;;;3.67;;
71395;SDS011;59888;55.814;37.132;2024-03-07T07:48:16;9.20;;;3.42;;
71395;SDS011;59888;55.814;37.132;2024-03-07T07:50:42;9.90;;;3.55;;
71395;SDS011;59888;55.814;37.132;2024-03-07T07:53:18;9.73;;;3.47;;
71395;SDS011;59888;55.814;37.132;2024-03-07T07:55:51;9.60;;;3.65;;
71395;SDS011;59888;55.814;37.132;2024-03-07T07:58:17;10.32;;;3.47;;
71395;SDS011;59888;55.814;37.132;2024-03-07T08:00:51;11.07;;;3.93;;
71395;SDS011;59888;55.814;37.132;2024-03-07T08:03:17;8.07;;;3.50;;
71395;SDS011;59888;55.814;37.132;2024-03-07T08:05:51;9.93;;;3.35;;
71395;SDS011;59888;55.814;37.132;2024-03-07T08:08:17;11.77;;;3.33;;
71395;SDS011;59888;55.814;37.132;2024-03-07T08:10:43;9.93;;;3.30;;
71395;SDS011;59888;55.814;37.132;2024-03-07T08:13:13;7.90;;;3.00;;
71395;SDS011;59888;55.814;37.132;2024-03-07T08:15:39;10.02;;;3.25;;
71395;SDS011;59888;55.814;37.132;2024-03-07T08:18:08;7.53;;;2.97;;
71395;SDS011;59888;55.814;37.132;2024-03-07T08:20:39;8.18;;;2.95;;
71395;SDS011;59888;55.814;37.132;2024-03-07T08:23:13;7.70;;;2.60;;
71395;SDS011;59888;55.814;37.132;2024-03-07T08:25:38;7.60;;;2.60;;
71395;SDS011;59888;55.814;37.132;2024-03-07T08:28:06;6.90;;;2.38;;
71395;SDS011;59888;55.814;37.132;2024-03-07T08:30:33;6.75;;;2.30;;
71395;SDS011;59888;55.814;37.132;2024-03-07T08:33:02;5.63;;;2.00;;
71395;SDS011;59888;55.814;37.132;2024-03-07T08:35:31;4.70;;;2.20;;
71395;SDS011;59888;55.814;37.132;2024-03-07T08:37:59;7.18;;;2.10;;
71395;SDS011;59888;55.814;37.132;2024-03-07T08:40:28;6.75;;;2.67;;
71395;SDS011;59888;55.814;37.132;2024-03-07T08:43:00;7.30;;;2.80;;
71395;SDS011;59888;55.814;37.132;2024-03-07T08:45:26;4.22;;;1.92;;
71395;SDS011;59888;55.814;37.132;2024-03-07T08:47:53;4.90;;;2.00;;
71395;SDS011;59888;55.814;37.132;2024-03-07T08:50:24;5.95;;;2.30;;
71395;SDS011;59888;55.814;37.132;2024-03-07T08:52:51;7.22;;;2.88;;
71395;SDS011;59888;55.814;37.132;2024-03-07T08:55:19;6.65;;;2.40;;
71395;SDS011;59888;55.814;37.132;2024-03-07T08:57:46;5.80;;;2.30;;
71395;SDS011;59888;55.814;37.132;2024-03-07T09:00:15;3.95;;;1.90;;
71395;SDS011;59888;55.814;37.132;2024-03-07T09:02:52;6.40;;;1.90;;
71395;SDS011;59888;55.814;37.132;2024-03-07T09:05:19;7.38;;;2.10;;
71395;SDS011;59888;55.814;37.132;2024-03-07T09:07:48;7.43;;;2.05;;
71395;SDS011;59888;55.814;37.132;2024-03-07T09:10:18;3.95;;;2.00;;
71395;SDS011;59888;55.814;37.132;2024-03-07T09:12:45;6.30;;;2.03;;
71395;SDS011;59888;55.814;37.132;2024-03-07T09:15:11;5.10;;;1.77;;
71395;SDS011;59888;55.814;37.132;2024-03-07T09:17:38;6.85;;;1.88;;
71395;SDS011;59888;55.814;37.132;2024-03-07T09:20:07;4.32;;;1.73;;
71395;SDS011;59888;55.814;37.132;2024-03-07T09:22:42;4.10;;;1.67;;
71395;SDS011;59888;55.814;37.132;2024-03-07T09:25:18;5.88;;;1.60;;
71395;SDS011;59888;55.814;37.132;2024-03-07T09:27:47;6.38;;;1.70;;
71395;SDS011;59888;55.814;37.132;2024-03-07T09:30:13;4.65;;;1.77;;
71395;SDS011;59888;55.814;37.132;2024-03-07T09:32:41;4.00;;;1.48;;
71395;SDS011;59888;55.814;37.132;2024-03-07T09:35:17;4.35;;;1.65;;
71395;SDS011;59888;55.814;37.132;2024-03-07T09:37:44;5.63;;;1.50;;
71395;SDS011;59888;55.814;37.132;2024-03-07T09:40:10;3.05;;;1.60;;
71395;SDS011;59888;55.814;37.132;2024-03-07T09:42:47;5.93;;;1.60;;
71395;SDS011;59888;55.814;37.132;2024-03-07T09:45:16;5.70;;;1.92;;
71395;SDS011;59888;55.814;37.132;2024-03-07T09:47:47;3.83;;;1.60;;
71395;SDS011;59888;55.814;37.132;2024-03-07T09:50:16;6.72;;;1.55;;
71395;SDS011;59888;55.814;37.132;2024-03-07T09:52:52;6.47;;;1.80;;
71395;SDS011;59888;55.814;37.132;2024-03-07T09:55:18;4.82;;;1.80;;
71395;SDS011;59888;55.814;37.132;2024-03-07T09:57:49;5.75;;;1.85;;
71395;SDS011;59888;55.814;37.132;2024-03-07T10:00:20;8.23;;;1.90;;
71395;SDS011;59888;55.814;37.132;2024-03-07T10:02:56;5.68;;;1.80;;
71395;SDS011;59888;55.814;37.132;2024-03-07T10:05:26;5.53;;;1.73;;
71395;SDS011;59888;55.814;37.132;2024-03-07T10:08:03;4.57;;;1.98;;
71395;SDS011;59888;55.814;37.132;2024-03-07T10:10:29;4.38;;;1.77;;
71395;SDS011;59888;55.814;37.132;2024-03-07T10:12:55;5.05;;;1.80;;
71395;SDS011;59888;55.814;37.132;2024-03-07T10:15:30;5.72;;;1.75;;
71395;SDS011;59888;55.814;37.132;2024-03-07T10:18:06;6.13;;;2.03;;
71395;SDS011;59888;55.814;37.132;2024-03-07T10:20:32;6.05;;;1.90;;
71395;SDS011;59888;55.814;37.132;2024-03-07T10:22:58;6.15;;;1.40;;
71395;SDS011;59888;55.814;37.132;2024-03-07T10:25:25;4.13;;;1.92;;
71395;SDS011;59888;55.814;37.132;2024-03-07T10:27:53;4.20;;;1.60;;
71395;SDS011;59888;55.814;37.132;2024-03-07T10:30:23;2.90;;;1.30;;
71395;SDS011;59888;55.814;37.132;2024-03-07T10:32:54;2.85;;;1.20;;
71395;SDS011;59888;55.814;37.132;2024-03-07T10:35:21;4.18;;;1.65;;
71395;SDS011;59888;55.814;37.132;2024-03-07T10:37:55;4.45;;;1.80;;
71395;SDS011;59888;55.814;37.132;2024-03-07T10:43:00;3.63;;;1.77;;
71395;SDS011;59888;55.814;37.132;2024-03-07T10:45:28;4.13;;;1.83;;
71395;SDS011;59888;55.814;37.132;2024-03-07T10:47:58;3.95;;;1.50;;
71395;SDS011;59888;55.814;37.132;2024-03-07T10:50:41;5.32;;;1.92;;
71395;SDS011;59888;55.814;37.132;2024-03-07T11:00:52;4.45;;;1.48;;
71395;SDS011;59888;55.814;37.132;2024-03-07T11:03:19;6.65;;;1.67;;
71395;SDS011;59888;55.814;37.132;2024-03-07T11:05:48;3.05;;;1.33;;
71395;SDS011;59888;55.814;37.132;2024-03-07T11:08:16;2.92;;;1.35;;
71395;SDS011;59888;55.814;37.132;2024-03-07T11:10:42;3.60;;;1.30;;
71395;SDS011;59888;55.814;37.132;2024-03-07T11:13:11;3.55;;;1.38;;
71395;SDS011;59888;55.814;37.132;2024-03-07T11:15:42;3.15;;;1.35;;
71395;SDS011;59888;55.814;37.132;2024-03-07T11:18:09;2.72;;;1.30;;
71395;SDS011;59888;55.814;37.132;2024-03-07T11:20:38;3.83;;;1.20;;
71395;SDS011;59888;55.814;37.132;2024-03-07T11:23:29;2.63;;;0.90;;
71395;SDS011;59888;55.814;37.132;2024-03-07T11:28:33;3.13;;;1.02;;
71395;SDS011;59888;55.814;37.132;2024-03-07T11:31:14;2.92;;;1.10;;
71395;SDS011;59888;55.814;37.132;2024-03-07T11:33:41;2.85;;;0.90;;
71395;SDS011;59888;55.814;37.132;2024-03-07T11:36:09;3.63;;;1.27;;
71395;SDS011;59888;55.814;37.132;2024-03-07T11:38:49;2.38;;;1.00;;
71395;SDS011;59888;55.814;37.132;2024-03-07T11:41:22;2.92;;;1.20;;
71395;SDS011;59888;55.814;37.132;2024-03-07T11:43:58;2.58;;;1.00;;
71395;SDS011;59888;55.814;37.132;2024-03-07T11:46:25;2.42;;;1.10;;
71395;SDS011;59888;55.814;37.132;2024-03-07T11:48:59;2.58;;;0.93;;
71395;SDS011;59888;55.814;37.132;2024-03-07T11:51:29;3.60;;;1.02;;
71395;SDS011;59888;55.814;37.132;2024-03-07T11:53:55;2.53;;;0.90;;
71395;SDS011;59888;55.814;37.132;2024-03-07T11:56:21;2.95;;;0.90;;
71395;SDS011;59888;55.814;37.132;2024-03-07T11:58:49;4.63;;;1.17;;
71395;SDS011;59888;55.814;37.132;2024-03-07T12:01:21;2.70;;;1.10;;
71395;SDS011;59888;55.814;37.132;2024-03-07T12:04:00;3.08;;;0.88;;
71395;SDS011;59888;55.814;37.132;2024-03-07T12:06:33;4.20;;;1.30;;
71395;SDS011;59888;55.814;37.132;2024-03-07T12:09:04;2.72;;;0.80;;
71395;SDS011;59888;55.814;37.132;2024-03-07T12:11:41;2.35;;;1.15;;
71395;SDS011;59888;55.814;37.132;2024-03-07T12:14:09;1.80;;;1.00;;
71395;SDS011;59888;55.814;37.132;2024-03-07T12:16:36;2.38;;;1.20;;
71395;SDS011;59888;55.814;37.132;2024-03-07T12:19:06;3.65;;;1.13;;
71395;SDS011;59888;55.814;37.132;2024-03-07T12:22:12;1.75;;;0.98;;
71395;SDS011;59888;55.814;37.132;2024-03-07T12:24:41;3.55;;;1.25;;
71395;SDS011;59888;55.814;37.132;2024-03-07T12:27:15;5.28;;;1.15;;
71395;SDS011;59888;55.814;37.132;2024-03-07T12:29:57;1.90;;;0.90;;
71395;SDS011;59888;55.814;37.132;2024-03-07T12:32:22;3.55;;;1.10;;
71395;SDS011;59888;55.814;37.132;2024-03-07T12:34:52;5.68;;;1.10;;
71395;SDS011;59888;55.814;37.132;2024-03-07T12:37:21;3.97;;;1.02;;
71395;SDS011;59888;55.814;37.132;2024-03-07T12:42:28;2.72;;;1.15;;
71395;SDS011;59888;55.814;37.132;2024-03-07T12:44:57;3.25;;;1.13;;
71395;SDS011;59888;55.814;37.132;2024-03-07T12:47:27;5.38;;;1.17;;
71395;SDS011;59888;55.814;37.132;2024-03-07T12:49:56;4.45;;;1.42;;
71395;SDS011;59888;55.814;37.132;2024-03-07T12:52:26;3.08;;;1.08;;
71395;SDS011;59888;55.814;37.132;2024-03-07T12:54:52;2.10;;;0.90;;
71395;SDS011;59888;55.814;37.132;2024-03-07T12:57:21;3.08;;;0.90;;
71395;SDS011;59888;55.814;37.132;2024-03-07T12:59:51;2.65;;;1.15;;
71395;SDS011;59888;55.814;37.132;2024-03-07T13:02:20;5.97;;;1.42;;
71395;SDS011;59888;55.814;37.132;2024-03-07T13:04:55;7.03;;;1.30;;
71395;SDS011;59888;55.814;37.132;2024-03-07T13:07:21;5.53;;;1.00;;
71395;SDS011;59888;55.814;37.132;2024-03-07T13:09:50;3.15;;;1.10;;
71395;SDS011;59888;55.814;37.132;2024-03-07T13:12:16;2.50;;;1.10;;
71395;SDS011;59888;55.814;37.132;2024-03-07T13:14:43;3.15;;;1.20;;
71395;SDS011;59888;55.814;37.132;2024-03-07T13:17:09;2.95;;;1.20;;
71395;SDS011;59888;55.814;37.132;2024-03-07T13:19:40;1.85;;;1.10;;
71395;SDS011;59888;55.814;37.132;2024-03-07T13:22:09;2.63;;;1.10;;
71395;SDS011;59888;55.814;37.132;2024-03-07T13:24:45;3.05;;;1.60;;
71395;SDS011;59888;55.814;37.132;2024-03-07T13:27:13;2.65;;;1.27;;
71395;SDS011;59888;55.814;37.132;2024-03-07T13:29:44;4.38;;;1.20;;
71395;SDS011;59888;55.814;37.132;2024-03-07T13:32:13;1.67;;;1.00;;
71395;SDS011;59888;55.814;37.132;2024-03-07T13:34:40;3.30;;;1.10;;
71395;SDS011;59888;55.814;37.132;2024-03-07T13:37:06;2.60;;;1.08;;
71395;SDS011;59888;55.814;37.132;2024-03-07T13:39:31;3.95;;;1.40;;
71395;SDS011;59888;55.814;37.132;2024-03-07T13:41:59;3.13;;;1.33;;
71395;SDS011;59888;55.814;37.132;2024-03-07T13:44:28;2.90;;;1.40;;
71395;SDS011;59888;55.814;37.132;2024-03-07T13:46:56;2.65;;;1.30;;
71395;SDS011;59888;55.814;37.132;2024-03-07T13:49:25;3.33;;;1.30;;
71395;SDS011;59888;55.814;37.132;2024-03-07T13:51:53;4.28;;;1.20;;
71395;SDS011;59888;55.814;37.132;2024-03-07T13:57:46;9.63;;;1.73;;
71395;SDS011;59888;55.814;37.132;2024-03-07T14:00:05;4.32;;;1.55;;
71395;SDS011;59888;55.814;37.132;2024-03-07T14:19:45;3.88;;;1.17;;
71395;SDS011;59888;55.814;37.132;2024-03-07T14:30:19;5.95;;;2.42;;
71395;SDS011;59888;55.814;37.132;2024-03-07T14:33:09;9.85;;;2.20;;
71395;SDS011;59888;55.814;37.132;2024-03-07T14:40:42;4.90;;;2.15;;
71395;SDS011;59888;55.814;37.132;2024-03-07T14:43:17;6.88;;;1.70;;
71395;SDS011;59888;55.814;37.132;2024-03-07T14:45:47;4.18;;;1.45;;
71395;SDS011;59888;55.814;37.132;2024-03-07T14:48:14;4.90;;;1.60;;
71395;SDS011;59888;55.814;37.132;2024-03-07T14:50:44;4.22;;;1.50;;
71395;SDS011;59888;55.814;37.132;2024-03-07T14:53:13;4.90;;;1.38;;
71395;SDS011;59888;55.814;37.132;2024-03-07T14:55:42;7.93;;;1.40;;
71395;SDS011;59888;55.814;37.132;2024-03-07T14:58:09;3.35;;;1.20;;
71395;SDS011;59888;55.814;37.132;2024-03-07T15:00:38;3.08;;;1.20;;
71395;SDS011;59888;55.814;37.132;2024-03-07T15:03:10;4.07;;;1.42;;
71395;SDS011;59888;55.814;37.132;2024-03-07T15:05:36;3.00;;;1.20;;
71395;SDS011;59888;55.814;37.132;2024-03-07T15:08:02;3.50;;;1.20;;
71395;SDS011;59888;55.814;37.132;2024-03-07T15:10:35;3.42;;;1.20;;
71395;SDS011;59888;55.814;37.132;2024-03-07T15:13:02;2.05;;;1.10;;
71395;SDS011;59888;55.814;37.132;2024-03-07T15:15:30;2.80;;;1.10;;
71395;SDS011;59888;55.814;37.132;2024-03-07T15:17:57;2.40;;;1.30;;
71395;SDS011;59888;55.814;37.132;2024-03-07T15:20:35;3.72;;;1.48;;
71395;SDS011;59888;55.814;37.132;2024-03-07T15:23:02;3.30;;;1.10;;
71395;SDS011;59888;55.814;37.132;2024-03-07T15:25:29;3.63;;;1.65;;
71395;SDS011;59888;55.814;37.132;2024-03-07T15:27:56;3.10;;;1.25;;